AFX79C LIMC-LTFJ
Flight info
| Callsign | AFX79C |
|---|---|
| Flight time | 2h 7m |
| Altitude | 39000 |
| Route | VAKON DCT OTKEK DCT LABIN DCT ELTIB DCT MITNO DCT TORTO DCT RAMAP DCT GINAM DCT AZBUX DCT NISVA DCT GAPVO DCT BUFRA DCT OMAMI DCT ADORU UM19 IBODU |
| Aircraft | A343/H-SDE2E3FGHIJ4J5M1RWXY/LB1D1 |
Departure
| Time | 2026-05-07 19:38 |
|---|---|
| Airport | Milan Malpensa International Airport (LIMC) |
Arrival
| Time | 2026-05-07 21:46 |
|---|---|
| Airport | Istanbul Sabiha Gökçen International Airport (LTFJ) |
| Time | Latitude | Longitude | Altitude | Speed | Heading |
|---|---|---|---|---|---|
| 2026-05-07 19:11 | 45.63137 | 8.71580 | 744 ft | 0 kts | 259° |
| 2026-05-07 19:29 | 45.63138 | 8.71586 | 745 ft | 3 kts | 259° |
| 2026-05-07 19:29 | 45.63142 | 8.71624 | 731 ft | 4 kts | 261° |
| 2026-05-07 19:29 | 45.63150 | 8.71659 | 740 ft | 3 kts | 230° |
| 2026-05-07 19:29 | 45.63165 | 8.71680 | 740 ft | 4 kts | 199° |
| 2026-05-07 19:30 | 45.63187 | 8.71682 | 740 ft | 4 kts | 169° |
| 2026-05-07 19:30 | 45.63209 | 8.71675 | 740 ft | 1 kts | 168° |
| 2026-05-07 19:32 | 45.63205 | 8.71677 | 740 ft | 4 kts | 168° |
| 2026-05-07 19:32 | 45.63119 | 8.71701 | 743 ft | 16 kts | 168° |
| 2026-05-07 19:33 | 45.62999 | 8.71735 | 743 ft | 18 kts | 167° |
| 2026-05-07 19:33 | 45.62968 | 8.71818 | 743 ft | 10 kts | 79° |
| 2026-05-07 19:33 | 45.62953 | 8.71929 | 742 ft | 17 kts | 136° |
| 2026-05-07 19:33 | 45.62795 | 8.71992 | 744 ft | 27 kts | 170° |
| 2026-05-07 19:34 | 45.62606 | 8.72040 | 744 ft | 28 kts | 169° |
| 2026-05-07 19:34 | 45.62408 | 8.72094 | 744 ft | 30 kts | 169° |
| 2026-05-07 19:34 | 45.62227 | 8.72161 | 742 ft | 9 kts | 135° |
| 2026-05-07 19:34 | 45.62214 | 8.72211 | 742 ft | 8 kts | 97° |
| 2026-05-07 19:35 | 45.62233 | 8.72384 | 743 ft | 27 kts | 79° |
| 2026-05-07 19:35 | 45.62269 | 8.72657 | 742 ft | 29 kts | 79° |
| 2026-05-07 19:35 | 45.62306 | 8.72945 | 743 ft | 29 kts | 88° |
| 2026-05-07 19:35 | 45.62251 | 8.73032 | 742 ft | 17 kts | 162° |
| 2026-05-07 19:36 | 45.62109 | 8.73074 | 744 ft | 22 kts | 169° |
| 2026-05-07 19:36 | 45.61955 | 8.73116 | 745 ft | 24 kts | 169° |
| 2026-05-07 19:36 | 45.61788 | 8.73169 | 744 ft | 25 kts | 157° |
| 2026-05-07 19:36 | 45.61675 | 8.73354 | 742 ft | 26 kts | 123° |
| 2026-05-07 19:37 | 45.61586 | 8.73584 | 743 ft | 27 kts | 101° |
| 2026-05-07 19:37 | 45.61653 | 8.73723 | 741 ft | 16 kts | 0° |
| 2026-05-07 19:37 | 45.61803 | 8.73685 | 741 ft | 38 kts | 349° |
| 2026-05-07 19:37 | 45.62311 | 8.73545 | 746 ft | 109 kts | 349° |
| 2026-05-07 19:38 | 45.63257 | 8.73284 | 757 ft | 165 kts | 349° |
| 2026-05-07 19:38 | 45.64441 | 8.72955 | 1287 ft | 180 kts | 349° |
| 2026-05-07 19:38 | 45.65705 | 8.72864 | 1973 ft | 190 kts | 15° |
| 2026-05-07 19:38 | 45.66819 | 8.74060 | 2464 ft | 220 kts | 57° |
| 2026-05-07 19:39 | 45.67670 | 8.75981 | 3417 ft | 232 kts | 56° |
| 2026-05-07 19:39 | 45.68629 | 8.77774 | 4691 ft | 220 kts | 50° |
| 2026-05-07 19:39 | 45.69645 | 8.79357 | 5625 ft | 215 kts | 45° |
| 2026-05-07 19:39 | 45.70739 | 8.80869 | 6635 ft | 221 kts | 43° |
| 2026-05-07 19:40 | 45.71848 | 8.82393 | 7739 ft | 222 kts | 49° |
| 2026-05-07 19:40 | 45.72573 | 8.84330 | 8847 ft | 224 kts | 77° |
| 2026-05-07 19:40 | 45.72474 | 8.86593 | 9821 ft | 235 kts | 111° |
| 2026-05-07 19:40 | 45.71629 | 8.88627 | 10597 ft | 248 kts | 126° |
| 2026-05-07 19:41 | 45.70555 | 8.90660 | 11484 ft | 257 kts | 128° |
| 2026-05-07 19:41 | 45.69469 | 8.92701 | 12410 ft | 265 kts | 128° |
| 2026-05-07 19:41 | 45.68355 | 8.94834 | 13379 ft | 271 kts | 128° |
| 2026-05-07 19:41 | 45.67222 | 8.97029 | 14289 ft | 277 kts | 128° |
| 2026-05-07 19:42 | 45.66071 | 8.99274 | 15174 ft | 282 kts | 128° |
| 2026-05-07 19:42 | 45.64945 | 9.01597 | 16058 ft | 288 kts | 122° |
| 2026-05-07 19:42 | 45.64178 | 9.04289 | 16758 ft | 302 kts | 108° |
| 2026-05-07 19:42 | 45.63620 | 9.07297 | 17111 ft | 324 kts | 105° |
| 2026-05-07 19:43 | 45.63070 | 9.10531 | 17446 ft | 345 kts | 105° |
| 2026-05-07 19:43 | 45.62481 | 9.13957 | 17778 ft | 365 kts | 105° |
| 2026-05-07 19:43 | 45.61854 | 9.17550 | 18318 ft | 379 kts | 105° |
| 2026-05-07 19:43 | 45.61205 | 9.21235 | 18941 ft | 387 kts | 105° |
| 2026-05-07 19:44 | 45.60539 | 9.24993 | 19640 ft | 393 kts | 105° |
| 2026-05-07 19:44 | 45.59860 | 9.28800 | 20329 ft | 398 kts | 105° |
| 2026-05-07 19:44 | 45.59171 | 9.32658 | 21024 ft | 404 kts | 105° |
| 2026-05-07 19:44 | 45.58470 | 9.36562 | 21724 ft | 408 kts | 105° |
| 2026-05-07 19:45 | 45.57762 | 9.40504 | 22472 ft | 413 kts | 105° |
| 2026-05-07 19:45 | 45.57042 | 9.44499 | 23112 ft | 418 kts | 105° |
| 2026-05-07 19:45 | 45.56311 | 9.48546 | 23731 ft | 423 kts | 105° |
| 2026-05-07 19:45 | 45.55576 | 9.52635 | 24257 ft | 428 kts | 105° |
| 2026-05-07 19:46 | 45.54893 | 9.56793 | 24772 ft | 433 kts | 104° |
| 2026-05-07 19:46 | 45.54221 | 9.61000 | 25290 ft | 437 kts | 104° |
| 2026-05-07 19:46 | 45.53537 | 9.65250 | 25790 ft | 442 kts | 104° |
| 2026-05-07 19:46 | 45.52840 | 9.69539 | 26280 ft | 446 kts | 105° |
| 2026-05-07 19:47 | 45.52133 | 9.73862 | 26744 ft | 450 kts | 105° |
| 2026-05-07 19:47 | 45.51415 | 9.78230 | 27208 ft | 455 kts | 105° |
| 2026-05-07 19:47 | 45.50696 | 9.82590 | 27623 ft | 460 kts | 105° |
| 2026-05-07 19:47 | 45.49948 | 9.87110 | 28094 ft | 464 kts | 105° |
| 2026-05-07 19:48 | 45.49213 | 9.91539 | 28554 ft | 468 kts | 105° |
| 2026-05-07 19:48 | 45.48459 | 9.96069 | 28975 ft | 472 kts | 105° |
| 2026-05-07 19:48 | 45.47698 | 10.00633 | 29415 ft | 476 kts | 105° |
| 2026-05-07 19:48 | 45.46933 | 10.05242 | 29838 ft | 479 kts | 105° |
| 2026-05-07 19:49 | 45.46156 | 10.09878 | 30217 ft | 483 kts | 106° |
| 2026-05-07 19:49 | 45.45369 | 10.14545 | 30581 ft | 486 kts | 106° |
| 2026-05-07 19:49 | 45.44572 | 10.19246 | 30883 ft | 491 kts | 106° |
| 2026-05-07 19:49 | 45.43767 | 10.23989 | 31233 ft | 494 kts | 106° |
| 2026-05-07 19:50 | 45.42957 | 10.28753 | 31603 ft | 496 kts | 106° |
| 2026-05-07 19:50 | 45.42145 | 10.33521 | 32106 ft | 495 kts | 106° |
| 2026-05-07 19:50 | 45.41334 | 10.38283 | 32613 ft | 494 kts | 106° |
| 2026-05-07 19:50 | 45.40523 | 10.43024 | 33089 ft | 494 kts | 106° |
| 2026-05-07 19:51 | 45.39708 | 10.47778 | 33560 ft | 493 kts | 106° |
| 2026-05-07 19:51 | 45.38893 | 10.52514 | 34002 ft | 493 kts | 107° |
| 2026-05-07 19:51 | 45.38074 | 10.57255 | 34296 ft | 494 kts | 107° |
| 2026-05-07 19:51 | 45.37254 | 10.61996 | 34681 ft | 494 kts | 107° |
| 2026-05-07 19:52 | 45.36437 | 10.66730 | 35099 ft | 493 kts | 106° |
| 2026-05-07 19:52 | 45.35692 | 10.71488 | 35502 ft | 492 kts | 104° |
| 2026-05-07 19:52 | 45.35007 | 10.76256 | 35872 ft | 492 kts | 104° |
| 2026-05-07 19:52 | 45.34341 | 10.81025 | 36219 ft | 492 kts | 104° |
| 2026-05-07 19:53 | 45.33674 | 10.85790 | 36572 ft | 492 kts | 104° |
| 2026-05-07 19:53 | 45.32998 | 10.90547 | 36893 ft | 492 kts | 104° |
| 2026-05-07 19:53 | 45.32309 | 10.95318 | 37167 ft | 493 kts | 104° |
| 2026-05-07 19:53 | 45.31611 | 11.00082 | 37498 ft | 493 kts | 105° |
| 2026-05-07 19:54 | 45.30906 | 11.04851 | 37864 ft | 492 kts | 105° |
| 2026-05-07 19:54 | 45.30200 | 11.09603 | 38222 ft | 491 kts | 105° |
| 2026-05-07 19:54 | 45.29492 | 11.14346 | 38583 ft | 491 kts | 105° |
| 2026-05-07 19:54 | 45.28782 | 11.19083 | 38861 ft | 491 kts | 105° |
| 2026-05-07 19:55 | 45.28069 | 11.23831 | 38980 ft | 492 kts | 105° |
| 2026-05-07 19:55 | 45.27359 | 11.28548 | 39009 ft | 485 kts | 105° |
| 2026-05-07 19:55 | 45.25952 | 11.37869 | 39016 ft | 482 kts | 105° |
| 2026-05-07 19:56 | 45.24538 | 11.47163 | 39015 ft | 482 kts | 105° |
| 2026-05-07 19:56 | 45.23127 | 11.56388 | 39015 ft | 482 kts | 105° |
| 2026-05-07 19:57 | 45.21698 | 11.65674 | 39018 ft | 482 kts | 105° |
| 2026-05-07 19:57 | 45.20260 | 11.74975 | 39020 ft | 483 kts | 105° |
| 2026-05-07 19:58 | 45.18809 | 11.84300 | 39020 ft | 488 kts | 105° |
| 2026-05-07 19:58 | 45.17314 | 11.93827 | 39006 ft | 502 kts | 105° |
| 2026-05-07 19:59 | 45.15773 | 12.03612 | 39000 ft | 515 kts | 105° |
| 2026-05-07 19:59 | 45.14189 | 12.13618 | 38997 ft | 526 kts | 105° |
| 2026-05-07 20:00 | 45.12585 | 12.23713 | 39002 ft | 524 kts | 105° |
| 2026-05-07 20:00 | 45.10977 | 12.33767 | 39002 ft | 523 kts | 105° |
| 2026-05-07 20:01 | 45.09357 | 12.43817 | 38985 ft | 524 kts | 105° |
| 2026-05-07 20:01 | 45.07725 | 12.53876 | 39012 ft | 525 kts | 106° |
| 2026-05-07 20:02 | 45.06084 | 12.63928 | 39011 ft | 525 kts | 106° |
| 2026-05-07 20:02 | 45.04435 | 12.73976 | 39000 ft | 524 kts | 106° |
| 2026-05-07 20:03 | 45.02788 | 12.83953 | 39022 ft | 525 kts | 106° |
| 2026-05-07 20:03 | 45.01120 | 12.93995 | 39020 ft | 525 kts | 106° |
| 2026-05-07 20:04 | 44.99445 | 13.04026 | 39026 ft | 525 kts | 106° |
| 2026-05-07 20:04 | 44.97762 | 13.14057 | 39020 ft | 525 kts | 106° |
| 2026-05-07 20:05 | 44.96098 | 13.24089 | 39027 ft | 525 kts | 106° |
| 2026-05-07 20:05 | 44.94434 | 13.34118 | 39026 ft | 525 kts | 106° |
| 2026-05-07 20:06 | 44.92757 | 13.44141 | 39028 ft | 525 kts | 106° |
| 2026-05-07 20:06 | 44.91068 | 13.54151 | 39032 ft | 524 kts | 106° |
| 2026-05-07 20:07 | 44.89370 | 13.64153 | 39039 ft | 524 kts | 107° |
| 2026-05-07 20:07 | 44.87663 | 13.74153 | 39045 ft | 524 kts | 107° |
| 2026-05-07 20:08 | 44.85948 | 13.84143 | 39038 ft | 524 kts | 107° |
| 2026-05-07 20:08 | 44.84222 | 13.94137 | 39048 ft | 525 kts | 107° |
| 2026-05-07 20:09 | 44.82488 | 14.04126 | 39045 ft | 525 kts | 107° |
| 2026-05-07 20:10 | 44.79871 | 14.19095 | 39027 ft | 525 kts | 107° |
| 2026-05-07 20:10 | 44.78114 | 14.29070 | 39040 ft | 525 kts | 107° |
| 2026-05-07 20:11 | 44.76348 | 14.39048 | 39037 ft | 526 kts | 107° |
| 2026-05-07 20:11 | 44.74573 | 14.49020 | 39035 ft | 525 kts | 107° |
| 2026-05-07 20:12 | 44.72789 | 14.58986 | 39039 ft | 526 kts | 107° |
| 2026-05-07 20:12 | 44.71008 | 14.68883 | 39044 ft | 526 kts | 107° |
| 2026-05-07 20:13 | 44.69205 | 14.78845 | 39048 ft | 526 kts | 107° |
| 2026-05-07 20:13 | 44.67395 | 14.88793 | 39050 ft | 526 kts | 107° |
| 2026-05-07 20:14 | 44.65576 | 14.98739 | 39060 ft | 526 kts | 107° |
| 2026-05-07 20:14 | 44.63749 | 15.08675 | 39058 ft | 526 kts | 107° |
| 2026-05-07 20:15 | 44.61913 | 15.18604 | 39054 ft | 525 kts | 107° |
| 2026-05-07 20:15 | 44.60068 | 15.28527 | 39058 ft | 525 kts | 108° |
| 2026-05-07 20:16 | 44.58217 | 15.38436 | 39065 ft | 525 kts | 108° |
| 2026-05-07 20:16 | 44.56358 | 15.48332 | 39066 ft | 525 kts | 108° |
| 2026-05-07 20:17 | 44.54490 | 15.58226 | 39067 ft | 525 kts | 108° |
| 2026-05-07 20:17 | 44.52615 | 15.68103 | 39068 ft | 524 kts | 108° |
| 2026-05-07 20:18 | 44.50734 | 15.77965 | 39072 ft | 524 kts | 108° |
| 2026-05-07 20:18 | 44.48845 | 15.87814 | 39071 ft | 524 kts | 108° |
| 2026-05-07 20:19 | 44.46946 | 15.97665 | 39059 ft | 524 kts | 108° |
| 2026-05-07 20:19 | 44.45041 | 16.07499 | 39072 ft | 523 kts | 108° |
| 2026-05-07 20:20 | 44.43131 | 16.17308 | 39079 ft | 523 kts | 108° |
| 2026-05-07 20:20 | 44.41535 | 16.25462 | 39074 ft | 523 kts | 108° |
| 2026-05-07 20:21 | 44.39610 | 16.35260 | 39074 ft | 523 kts | 108° |
| 2026-05-07 20:21 | 44.37674 | 16.45057 | 39077 ft | 523 kts | 108° |
| 2026-05-07 20:22 | 44.35729 | 16.54855 | 39079 ft | 523 kts | 108° |
| 2026-05-07 20:22 | 44.33776 | 16.64644 | 39082 ft | 523 kts | 108° |
| 2026-05-07 20:23 | 44.31813 | 16.74435 | 39082 ft | 524 kts | 109° |
| 2026-05-07 20:23 | 44.29838 | 16.84236 | 39083 ft | 525 kts | 109° |
| 2026-05-07 20:24 | 44.27819 | 16.94025 | 39088 ft | 525 kts | 109° |
| 2026-05-07 20:24 | 44.25776 | 17.03796 | 39080 ft | 525 kts | 109° |
| 2026-05-07 20:25 | 44.23742 | 17.13503 | 39098 ft | 525 kts | 109° |
| 2026-05-07 20:25 | 44.21691 | 17.23271 | 39099 ft | 525 kts | 109° |
| 2026-05-07 20:26 | 44.19632 | 17.33036 | 39097 ft | 525 kts | 109° |
| 2026-05-07 20:26 | 44.17563 | 17.42800 | 39095 ft | 525 kts | 109° |
| 2026-05-07 20:27 | 44.15486 | 17.52553 | 39095 ft | 525 kts | 109° |
| 2026-05-07 20:27 | 44.13402 | 17.62295 | 39091 ft | 525 kts | 109° |
| 2026-05-07 20:28 | 44.11309 | 17.72032 | 39075 ft | 525 kts | 109° |
| 2026-05-07 20:28 | 44.09209 | 17.81758 | 39083 ft | 525 kts | 109° |
| 2026-05-07 20:29 | 44.07101 | 17.91476 | 39075 ft | 525 kts | 109° |
| 2026-05-07 20:29 | 44.04985 | 18.01183 | 39076 ft | 525 kts | 109° |
| 2026-05-07 20:30 | 44.02861 | 18.10884 | 39071 ft | 524 kts | 109° |
| 2026-05-07 20:30 | 44.00732 | 18.20565 | 39075 ft | 524 kts | 109° |
| 2026-05-07 20:31 | 43.98596 | 18.30236 | 39080 ft | 524 kts | 109° |
| 2026-05-07 20:31 | 43.96452 | 18.39894 | 39077 ft | 524 kts | 110° |
| 2026-05-07 20:32 | 43.94299 | 18.49550 | 39077 ft | 524 kts | 110° |
| 2026-05-07 20:32 | 43.92139 | 18.59195 | 39077 ft | 524 kts | 110° |
| 2026-05-07 20:33 | 43.89985 | 18.68769 | 39077 ft | 524 kts | 110° |
| 2026-05-07 20:33 | 43.87808 | 18.78404 | 39077 ft | 524 kts | 110° |
| 2026-05-07 20:34 | 43.85620 | 18.88043 | 39075 ft | 524 kts | 110° |
| 2026-05-07 20:34 | 43.83424 | 18.97676 | 39072 ft | 524 kts | 110° |
| 2026-05-07 20:35 | 43.81221 | 19.07297 | 39062 ft | 524 kts | 110° |
| 2026-05-07 20:35 | 43.79011 | 19.16905 | 39067 ft | 524 kts | 110° |
| 2026-05-07 20:36 | 43.76801 | 19.26500 | 39068 ft | 524 kts | 109° |
| 2026-05-07 20:36 | 43.74759 | 19.36176 | 39065 ft | 524 kts | 108° |
| 2026-05-07 20:37 | 43.72788 | 19.45883 | 39065 ft | 524 kts | 108° |
| 2026-05-07 20:37 | 43.70789 | 19.55568 | 39068 ft | 524 kts | 108° |
| 2026-05-07 20:38 | 43.68761 | 19.65228 | 39067 ft | 523 kts | 108° |
| 2026-05-07 20:38 | 43.66720 | 19.74880 | 39068 ft | 523 kts | 108° |
| 2026-05-07 20:39 | 43.64676 | 19.84511 | 39072 ft | 522 kts | 108° |
| 2026-05-07 20:39 | 43.62619 | 19.94135 | 39077 ft | 523 kts | 108° |
| 2026-05-07 20:40 | 43.60555 | 20.03754 | 39073 ft | 523 kts | 108° |
| 2026-05-07 20:40 | 43.58483 | 20.13371 | 39076 ft | 523 kts | 108° |
| 2026-05-07 20:41 | 43.56401 | 20.22989 | 39074 ft | 524 kts | 108° |
| 2026-05-07 20:41 | 43.54323 | 20.32550 | 39057 ft | 524 kts | 108° |
| 2026-05-07 20:42 | 43.52224 | 20.42180 | 39081 ft | 525 kts | 108° |
| 2026-05-07 20:42 | 43.50110 | 20.51815 | 39080 ft | 525 kts | 108° |
| 2026-05-07 20:43 | 43.47989 | 20.61438 | 39075 ft | 525 kts | 109° |
| 2026-05-07 20:43 | 43.45858 | 20.71063 | 39080 ft | 525 kts | 109° |
| 2026-05-07 20:44 | 43.43720 | 20.80683 | 39073 ft | 526 kts | 109° |
| 2026-05-07 20:44 | 43.41569 | 20.90315 | 39074 ft | 527 kts | 109° |
| 2026-05-07 20:45 | 43.39411 | 20.99942 | 39066 ft | 527 kts | 109° |
| 2026-05-07 20:45 | 43.37243 | 21.09560 | 39061 ft | 527 kts | 109° |
| 2026-05-07 20:46 | 43.35066 | 21.19183 | 39069 ft | 528 kts | 109° |
| 2026-05-07 20:46 | 43.32882 | 21.28796 | 39062 ft | 527 kts | 109° |
| 2026-05-07 20:47 | 43.30688 | 21.38409 | 39054 ft | 527 kts | 109° |
| 2026-05-07 20:47 | 43.28492 | 21.48002 | 39067 ft | 526 kts | 109° |
| 2026-05-07 20:48 | 43.26284 | 21.57566 | 39072 ft | 526 kts | 109° |
| 2026-05-07 20:48 | 43.24072 | 21.67123 | 39072 ft | 525 kts | 109° |
| 2026-05-07 20:49 | 43.21855 | 21.76668 | 39074 ft | 526 kts | 109° |
| 2026-05-07 20:49 | 43.19624 | 21.86211 | 39075 ft | 526 kts | 109° |
| 2026-05-07 20:50 | 43.17403 | 21.95681 | 39074 ft | 526 kts | 109° |
| 2026-05-07 20:50 | 43.15158 | 22.05214 | 39071 ft | 526 kts | 109° |
| 2026-05-07 20:51 | 43.12899 | 22.14764 | 39080 ft | 528 kts | 109° |
| 2026-05-07 20:51 | 43.10627 | 22.24336 | 39089 ft | 529 kts | 109° |
| 2026-05-07 20:52 | 43.08346 | 22.33905 | 39098 ft | 529 kts | 110° |
| 2026-05-07 20:52 | 43.06059 | 22.43457 | 39106 ft | 529 kts | 110° |
| 2026-05-07 20:53 | 43.03762 | 22.53006 | 39107 ft | 528 kts | 110° |
| 2026-05-07 20:53 | 43.01460 | 22.62539 | 39113 ft | 528 kts | 110° |
| 2026-05-07 20:54 | 42.99150 | 22.72061 | 39117 ft | 528 kts | 110° |
| 2026-05-07 20:54 | 42.96836 | 22.81584 | 39117 ft | 529 kts | 109° |
| 2026-05-07 20:55 | 42.94748 | 22.91218 | 39116 ft | 530 kts | 107° |
| 2026-05-07 20:55 | 42.92781 | 23.00911 | 39110 ft | 530 kts | 107° |
| 2026-05-07 20:56 | 42.90778 | 23.10591 | 39108 ft | 531 kts | 107° |
| 2026-05-07 20:56 | 42.88728 | 23.20275 | 39104 ft | 531 kts | 107° |
| 2026-05-07 20:57 | 42.86660 | 23.29949 | 39104 ft | 531 kts | 107° |
| 2026-05-07 20:57 | 42.84582 | 23.39608 | 39105 ft | 531 kts | 107° |
| 2026-05-07 20:58 | 42.82503 | 23.49246 | 39103 ft | 530 kts | 107° |
| 2026-05-07 20:58 | 42.80419 | 23.58873 | 39105 ft | 530 kts | 107° |
| 2026-05-07 20:59 | 42.78341 | 23.68422 | 39102 ft | 530 kts | 107° |
| 2026-05-07 20:59 | 42.76233 | 23.78063 | 39104 ft | 533 kts | 107° |
| 2026-05-07 21:00 | 42.74110 | 23.87728 | 39107 ft | 534 kts | 107° |
| 2026-05-07 21:00 | 42.71978 | 23.97401 | 39107 ft | 534 kts | 107° |
| 2026-05-07 21:01 | 42.69843 | 24.07039 | 39101 ft | 531 kts | 108° |
| 2026-05-07 21:01 | 42.67532 | 24.16549 | 39103 ft | 529 kts | 112° |
| 2026-05-07 21:02 | 42.64811 | 24.25846 | 39099 ft | 529 kts | 114° |
| 2026-05-07 21:02 | 42.62018 | 24.35086 | 39095 ft | 529 kts | 114° |
| 2026-05-07 21:03 | 42.59212 | 24.44319 | 39096 ft | 529 kts | 114° |
| 2026-05-07 21:03 | 42.56404 | 24.53551 | 39090 ft | 530 kts | 114° |
| 2026-05-07 21:04 | 42.53598 | 24.62785 | 39086 ft | 529 kts | 113° |
| 2026-05-07 21:04 | 42.50782 | 24.72007 | 39084 ft | 529 kts | 114° |
| 2026-05-07 21:05 | 42.47874 | 24.81162 | 39085 ft | 529 kts | 115° |
| 2026-05-07 21:05 | 42.44897 | 24.90267 | 39081 ft | 529 kts | 115° |
| 2026-05-07 21:06 | 42.41923 | 24.99376 | 39074 ft | 529 kts | 115° |
| 2026-05-07 21:06 | 42.38958 | 25.08482 | 39075 ft | 529 kts | 115° |
| 2026-05-07 21:07 | 42.35988 | 25.17590 | 39074 ft | 529 kts | 115° |
| 2026-05-07 21:07 | 42.33015 | 25.26679 | 39073 ft | 528 kts | 115° |
| 2026-05-07 21:08 | 42.30038 | 25.35749 | 39073 ft | 528 kts | 115° |
| 2026-05-07 21:08 | 42.27057 | 25.44796 | 39049 ft | 528 kts | 115° |
| 2026-05-07 21:09 | 42.24046 | 25.53906 | 39063 ft | 534 kts | 115° |
| 2026-05-07 21:09 | 42.21523 | 25.61514 | 39062 ft | 535 kts | 115° |
| 2026-05-07 21:10 | 42.18478 | 25.70671 | 39063 ft | 535 kts | 115° |
| 2026-05-07 21:10 | 42.15428 | 25.79813 | 39063 ft | 534 kts | 115° |
| 2026-05-07 21:11 | 42.12382 | 25.88909 | 39068 ft | 531 kts | 115° |
| 2026-05-07 21:11 | 42.07816 | 26.02487 | 39063 ft | 530 kts | 115° |
| 2026-05-07 21:12 | 42.04766 | 26.11522 | 39062 ft | 530 kts | 115° |
| 2026-05-07 21:12 | 42.01711 | 26.20542 | 39064 ft | 530 kts | 115° |
| 2026-05-07 21:13 | 41.98636 | 26.29551 | 39063 ft | 530 kts | 117° |
| 2026-05-07 21:13 | 41.95132 | 26.38176 | 39065 ft | 529 kts | 120° |
| 2026-05-07 21:14 | 41.91499 | 26.46739 | 39073 ft | 527 kts | 120° |
| 2026-05-07 21:14 | 41.87813 | 26.55242 | 39066 ft | 526 kts | 124° |
| 2026-05-07 21:15 | 41.83433 | 26.62837 | 38992 ft | 502 kts | 131° |
| 2026-05-07 21:15 | 41.81242 | 26.66410 | 38921 ft | 491 kts | 131° |
| 2026-05-07 21:15 | 41.79061 | 26.69945 | 38245 ft | 494 kts | 131° |
| 2026-05-07 21:16 | 41.76863 | 26.73499 | 37637 ft | 495 kts | 131° |
| 2026-05-07 21:16 | 41.74668 | 26.77042 | 37089 ft | 494 kts | 131° |
| 2026-05-07 21:16 | 41.72479 | 26.80569 | 36539 ft | 493 kts | 131° |
| 2026-05-07 21:16 | 41.70289 | 26.84096 | 35968 ft | 491 kts | 131° |
| 2026-05-07 21:17 | 41.68108 | 26.87601 | 35346 ft | 490 kts | 131° |
| 2026-05-07 21:17 | 41.65929 | 26.91101 | 34719 ft | 488 kts | 132° |
| 2026-05-07 21:17 | 41.63761 | 26.94579 | 34082 ft | 486 kts | 132° |
| 2026-05-07 21:17 | 41.61598 | 26.98044 | 33328 ft | 484 kts | 132° |
| 2026-05-07 21:18 | 41.59448 | 27.01484 | 32641 ft | 481 kts | 131° |
| 2026-05-07 21:18 | 41.57309 | 27.04904 | 31944 ft | 478 kts | 131° |
| 2026-05-07 21:18 | 41.55189 | 27.08290 | 31457 ft | 471 kts | 131° |
| 2026-05-07 21:18 | 41.53002 | 27.11496 | 30996 ft | 464 kts | 136° |
| 2026-05-07 21:19 | 41.50735 | 27.14522 | 30525 ft | 458 kts | 137° |
| 2026-05-07 21:19 | 41.48496 | 27.17504 | 30021 ft | 453 kts | 136° |
| 2026-05-07 21:19 | 41.46291 | 27.20465 | 29511 ft | 446 kts | 136° |
| 2026-05-07 21:19 | 41.44127 | 27.23388 | 29047 ft | 440 kts | 136° |
| 2026-05-07 21:20 | 41.41999 | 27.26273 | 28589 ft | 434 kts | 136° |
| 2026-05-07 21:20 | 41.39901 | 27.29121 | 28139 ft | 428 kts | 136° |
| 2026-05-07 21:20 | 41.37826 | 27.31938 | 27682 ft | 425 kts | 136° |
| 2026-05-07 21:20 | 41.35760 | 27.34741 | 27222 ft | 424 kts | 136° |
| 2026-05-07 21:21 | 41.33703 | 27.37532 | 26772 ft | 421 kts | 136° |
| 2026-05-07 21:21 | 41.31657 | 27.40306 | 26317 ft | 418 kts | 136° |
| 2026-05-07 21:21 | 41.29652 | 27.43021 | 25918 ft | 414 kts | 136° |
| 2026-05-07 21:21 | 41.27665 | 27.45712 | 25789 ft | 401 kts | 136° |
| 2026-05-07 21:22 | 41.25726 | 27.48336 | 25424 ft | 396 kts | 136° |
| 2026-05-07 21:22 | 41.23914 | 27.51083 | 25011 ft | 395 kts | 126° |
| 2026-05-07 21:22 | 41.22603 | 27.54286 | 24612 ft | 395 kts | 113° |
| 2026-05-07 21:22 | 41.21595 | 27.57668 | 24200 ft | 393 kts | 111° |
| 2026-05-07 21:23 | 41.20630 | 27.61055 | 23819 ft | 391 kts | 111° |
| 2026-05-07 21:23 | 41.19668 | 27.64425 | 23392 ft | 389 kts | 111° |
| 2026-05-07 21:23 | 41.18709 | 27.67762 | 22978 ft | 386 kts | 111° |
| 2026-05-07 21:23 | 41.17750 | 27.71082 | 22592 ft | 383 kts | 111° |
| 2026-05-07 21:24 | 41.16796 | 27.74373 | 22205 ft | 381 kts | 111° |
| 2026-05-07 21:24 | 41.15848 | 27.77641 | 21816 ft | 378 kts | 111° |
| 2026-05-07 21:24 | 41.14904 | 27.80883 | 21433 ft | 376 kts | 111° |
| 2026-05-07 21:24 | 41.13965 | 27.84106 | 21048 ft | 373 kts | 111° |
| 2026-05-07 21:25 | 41.13031 | 27.87304 | 20669 ft | 371 kts | 111° |
| 2026-05-07 21:25 | 41.12103 | 27.90484 | 20284 ft | 368 kts | 111° |
| 2026-05-07 21:25 | 41.11183 | 27.93642 | 19918 ft | 366 kts | 112° |
| 2026-05-07 21:25 | 41.10262 | 27.96777 | 19537 ft | 364 kts | 112° |
| 2026-05-07 21:26 | 41.09348 | 27.99891 | 19168 ft | 361 kts | 112° |
| 2026-05-07 21:26 | 41.08438 | 28.02984 | 18790 ft | 359 kts | 112° |
| 2026-05-07 21:26 | 41.07543 | 28.06027 | 18626 ft | 349 kts | 112° |
| 2026-05-07 21:26 | 41.06675 | 28.08978 | 18503 ft | 339 kts | 111° |
| 2026-05-07 21:27 | 41.05825 | 28.11862 | 18351 ft | 333 kts | 111° |
| 2026-05-07 21:27 | 41.04940 | 28.14697 | 18000 ft | 333 kts | 117° |
| 2026-05-07 21:27 | 41.03582 | 28.17149 | 17675 ft | 331 kts | 139° |
| 2026-05-07 21:27 | 41.01624 | 28.18679 | 17365 ft | 327 kts | 163° |
| 2026-05-07 21:28 | 40.99431 | 28.19406 | 17056 ft | 325 kts | 171° |
| 2026-05-07 21:28 | 40.97213 | 28.19965 | 16743 ft | 324 kts | 171° |
| 2026-05-07 21:28 | 40.95002 | 28.20512 | 16435 ft | 322 kts | 171° |
| 2026-05-07 21:28 | 40.92802 | 28.21067 | 16121 ft | 321 kts | 171° |
| 2026-05-07 21:29 | 40.90617 | 28.21626 | 15816 ft | 320 kts | 171° |
| 2026-05-07 21:29 | 40.88436 | 28.22188 | 15515 ft | 318 kts | 171° |
| 2026-05-07 21:29 | 40.86270 | 28.22748 | 15212 ft | 317 kts | 171° |
| 2026-05-07 21:29 | 40.84112 | 28.23307 | 14904 ft | 315 kts | 171° |
| 2026-05-07 21:30 | 40.81964 | 28.23865 | 14602 ft | 314 kts | 171° |
| 2026-05-07 21:30 | 40.79826 | 28.24421 | 14290 ft | 312 kts | 171° |
| 2026-05-07 21:30 | 40.77737 | 28.25207 | 13986 ft | 314 kts | 159° |
| 2026-05-07 21:30 | 40.75766 | 28.26440 | 13629 ft | 313 kts | 154° |
| 2026-05-07 21:31 | 40.73843 | 28.27757 | 13297 ft | 310 kts | 154° |
| 2026-05-07 21:31 | 40.71936 | 28.29069 | 12986 ft | 308 kts | 154° |
| 2026-05-07 21:31 | 40.70068 | 28.30439 | 12662 ft | 307 kts | 148° |
| 2026-05-07 21:31 | 40.68557 | 28.32409 | 12365 ft | 309 kts | 124° |
| 2026-05-07 21:32 | 40.67809 | 28.35000 | 12052 ft | 309 kts | 99° |
| 2026-05-07 21:32 | 40.67657 | 28.37817 | 11731 ft | 308 kts | 91° |
| 2026-05-07 21:32 | 40.67620 | 28.40634 | 11422 ft | 307 kts | 91° |
| 2026-05-07 21:32 | 40.67584 | 28.43437 | 11107 ft | 305 kts | 91° |
| 2026-05-07 21:33 | 40.67537 | 28.46226 | 10796 ft | 304 kts | 91° |
| 2026-05-07 21:33 | 40.67486 | 28.49005 | 10489 ft | 303 kts | 91° |
| 2026-05-07 21:33 | 40.67431 | 28.51765 | 10244 ft | 299 kts | 92° |
| 2026-05-07 21:33 | 40.67372 | 28.54453 | 10123 ft | 289 kts | 92° |
| 2026-05-07 21:34 | 40.67313 | 28.57067 | 9987 ft | 282 kts | 92° |
| 2026-05-07 21:34 | 40.67255 | 28.59635 | 9721 ft | 279 kts | 92° |
| 2026-05-07 21:34 | 40.67100 | 28.62177 | 9404 ft | 278 kts | 103° |
| 2026-05-07 21:34 | 40.66283 | 28.64433 | 9084 ft | 273 kts | 133° |
| 2026-05-07 21:35 | 40.64796 | 28.65947 | 8665 ft | 273 kts | 152° |
| 2026-05-07 21:35 | 40.63097 | 28.67135 | 8088 ft | 281 kts | 155° |
| 2026-05-07 21:35 | 40.61329 | 28.68316 | 7509 ft | 288 kts | 155° |
| 2026-05-07 21:35 | 40.59553 | 28.69588 | 6938 ft | 294 kts | 148° |
| 2026-05-07 21:36 | 40.57973 | 28.71326 | 6384 ft | 299 kts | 138° |
| 2026-05-07 21:36 | 40.56509 | 28.73229 | 6109 ft | 291 kts | 137° |
| 2026-05-07 21:36 | 40.55220 | 28.75240 | 5807 ft | 287 kts | 124° |
| 2026-05-07 21:36 | 40.54442 | 28.77639 | 5398 ft | 287 kts | 102° |
| 2026-05-07 21:37 | 40.54457 | 28.80243 | 4994 ft | 286 kts | 75° |
| 2026-05-07 21:37 | 40.55399 | 28.82487 | 4703 ft | 279 kts | 42° |
| 2026-05-07 21:37 | 40.56934 | 28.84039 | 4924 ft | 281 kts | 31° |
| 2026-05-07 21:37 | 40.58559 | 28.85450 | 5003 ft | 279 kts | 31° |
| 2026-05-07 21:38 | 40.60184 | 28.86844 | 5010 ft | 279 kts | 31° |
| 2026-05-07 21:38 | 40.61809 | 28.88244 | 4992 ft | 278 kts | 31° |
| 2026-05-07 21:38 | 40.63427 | 28.89643 | 4873 ft | 279 kts | 31° |
| 2026-05-07 21:38 | 40.65048 | 28.91048 | 4761 ft | 279 kts | 31° |
| 2026-05-07 21:39 | 40.66643 | 28.92435 | 4635 ft | 275 kts | 31° |
| 2026-05-07 21:39 | 40.68253 | 28.93835 | 4549 ft | 269 kts | 31° |
| 2026-05-07 21:39 | 40.69760 | 28.95151 | 4430 ft | 258 kts | 30° |
| 2026-05-07 21:39 | 40.71225 | 28.96429 | 4316 ft | 247 kts | 30° |
| 2026-05-07 21:40 | 40.72632 | 28.97657 | 4210 ft | 238 kts | 30° |
| 2026-05-07 21:40 | 40.73987 | 28.98839 | 4088 ft | 230 kts | 29° |
| 2026-05-07 21:40 | 40.75327 | 29.00005 | 4016 ft | 232 kts | 29° |
| 2026-05-07 21:40 | 40.76676 | 29.01179 | 4003 ft | 233 kts | 30° |
| 2026-05-07 21:41 | 40.77956 | 29.02497 | 3963 ft | 235 kts | 43° |
| 2026-05-07 21:41 | 40.78904 | 29.04253 | 3729 ft | 237 kts | 60° |
| 2026-05-07 21:41 | 40.79599 | 29.06226 | 3534 ft | 234 kts | 63° |
| 2026-05-07 21:41 | 40.80279 | 29.08134 | 3443 ft | 225 kts | 62° |
| 2026-05-07 21:42 | 40.80952 | 29.09960 | 3368 ft | 217 kts | 61° |
| 2026-05-07 21:42 | 40.81608 | 29.11717 | 3267 ft | 209 kts | 61° |
| 2026-05-07 21:42 | 40.82234 | 29.13389 | 3144 ft | 200 kts | 60° |
| 2026-05-07 21:42 | 40.82859 | 29.15060 | 3024 ft | 205 kts | 61° |
| 2026-05-07 21:43 | 40.83491 | 29.16759 | 2879 ft | 206 kts | 61° |
| 2026-05-07 21:43 | 40.84114 | 29.18451 | 2562 ft | 204 kts | 61° |
| 2026-05-07 21:43 | 40.84735 | 29.20130 | 2242 ft | 202 kts | 62° |
| 2026-05-07 21:43 | 40.85346 | 29.21782 | 1932 ft | 199 kts | 62° |
| 2026-05-07 21:44 | 40.85947 | 29.23406 | 1627 ft | 195 kts | 62° |
| 2026-05-07 21:44 | 40.86518 | 29.24954 | 1337 ft | 178 kts | 63° |
| 2026-05-07 21:44 | 40.87035 | 29.26351 | 1073 ft | 161 kts | 63° |
| 2026-05-07 21:44 | 40.87505 | 29.27621 | 826 ft | 148 kts | 64° |
| 2026-05-07 21:45 | 40.87942 | 29.28805 | 626 ft | 141 kts | 64° |
| 2026-05-07 21:45 | 40.88370 | 29.29963 | 385 ft | 139 kts | 64° |
| 2026-05-07 21:45 | 40.88789 | 29.31084 | 303 ft | 127 kts | 64° |
| 2026-05-07 21:45 | 40.89062 | 29.31818 | 308 ft | 63 kts | 64° |
| 2026-05-07 21:46 | 40.89248 | 29.32282 | 308 ft | 50 kts | 52° |
| 2026-05-07 21:46 | 40.89446 | 29.32491 | 310 ft | 10 kts | 20° |
| 2026-05-07 21:46 | 40.89497 | 29.32462 | 310 ft | 7 kts | 287° |
| 2026-05-07 21:46 | 40.89503 | 29.32388 | 309 ft | 9 kts | 294° |
| 2026-05-07 21:47 | 40.89563 | 29.32345 | 309 ft | 12 kts | 349° |
| 2026-05-07 21:47 | 40.89655 | 29.32306 | 310 ft | 19 kts | 335° |
| 2026-05-07 21:47 | 40.89798 | 29.32215 | 312 ft | 23 kts | 334° |
| 2026-05-07 21:47 | 40.89883 | 29.32159 | 314 ft | 11 kts | 334° |
| 2026-05-07 21:48 | 40.89893 | 29.32153 | 314 ft | 0 kts | 334° |
| 2026-05-07 21:48 | 40.89893 | 29.32152 | 314 ft | 1 kts | 334° |
| 2026-05-07 21:48 | 40.89901 | 29.32148 | 318 ft | 0 kts | 334° |
| 2026-05-07 21:49 | 40.89907 | 29.32144 | 316 ft | 3 kts | 334° |
| 2026-05-07 21:49 | 40.89967 | 29.32105 | 316 ft | 13 kts | 334° |
| 2026-05-07 21:49 | 40.90058 | 29.32046 | 316 ft | 15 kts | 332° |
| 2026-05-07 21:50 | 40.90071 | 29.32006 | 318 ft | 7 kts | 253° |
| 2026-05-07 21:50 | 40.90025 | 29.31883 | 317 ft | 18 kts | 243° |
| 2026-05-07 21:50 | 40.89966 | 29.31723 | 316 ft | 21 kts | 244° |
| 2026-05-07 21:50 | 40.89898 | 29.31540 | 316 ft | 24 kts | 244° |
| 2026-05-07 21:51 | 40.89822 | 29.31334 | 316 ft | 26 kts | 244° |
| 2026-05-07 21:51 | 40.89799 | 29.31129 | 318 ft | 20 kts | 309° |
| 2026-05-07 21:51 | 40.89930 | 29.31048 | 317 ft | 22 kts | 341° |
| 2026-05-07 21:51 | 40.90079 | 29.30961 | 316 ft | 25 kts | 334° |
| 2026-05-07 21:52 | 40.90229 | 29.30891 | 316 ft | 17 kts | 17° |
| 2026-05-07 21:52 | 40.90309 | 29.31057 | 316 ft | 27 kts | 64° |
| 2026-05-07 21:52 | 40.90395 | 29.31292 | 316 ft | 30 kts | 64° |
| 2026-05-07 21:52 | 40.90488 | 29.31545 | 315 ft | 31 kts | 64° |
| 2026-05-07 21:53 | 40.90531 | 29.31617 | 318 ft | 7 kts | 24° |
| 2026-05-07 21:53 | 40.90565 | 29.31603 | 317 ft | 7 kts | 333° |
| 2026-05-07 21:53 | 40.90583 | 29.31591 | 317 ft | 3 kts | 334° |
| 2026-05-07 21:53 | 40.90603 | 29.31578 | 317 ft | 3 kts | 334° |
| 2026-05-07 21:54 | 40.90611 | 29.31573 | 316 ft | 0 kts | 334° |